createdAt,value
2024-02-12T00:02:19.739Z,100.00
2024-02-12T00:04:49.733Z,100.00
2024-02-12T00:07:19.649Z,100.00
2024-02-12T00:09:49.221Z,100.00
2024-02-12T00:12:19.900Z,100.00
2024-02-12T00:14:49.898Z,100.00
2024-02-12T00:17:19.573Z,100.00
2024-02-12T00:19:49.944Z,100.00
2024-02-12T00:22:21.434Z,100.00
2024-02-12T00:24:50.699Z,100.00
2024-02-12T00:27:21.670Z,100.00
2024-02-12T00:29:54.496Z,100.00
2024-02-12T00:32:24.463Z,100.00
2024-02-12T00:34:53.744Z,100.00
2024-02-12T00:37:26.301Z,100.00
2024-02-12T00:39:55.547Z,100.00
2024-02-12T00:42:26.154Z,100.00
2024-02-12T00:44:57.642Z,100.00
2024-02-12T00:47:27.215Z,100.00
2024-02-12T00:49:56.587Z,100.00
2024-02-12T00:52:25.798Z,100.00
2024-02-12T00:54:55.009Z,100.00
2024-02-12T00:57:24.313Z,100.00
2024-02-12T00:59:54.913Z,100.00
2024-02-12T01:02:24.420Z,100.00
2024-02-12T01:04:55.662Z,100.00
2024-02-12T01:07:26.220Z,100.00
2024-02-12T01:09:55.908Z,100.00
2024-02-12T01:12:25.458Z,100.00
2024-02-12T01:14:56.203Z,100.00
2024-02-12T01:17:25.508Z,100.00
2024-02-12T01:19:54.966Z,100.00
2024-02-12T01:22:24.464Z,100.00
2024-02-12T01:24:59.920Z,100.00
2024-02-12T01:27:29.214Z,100.00
2024-02-12T01:29:59.859Z,100.00
2024-02-12T01:32:29.242Z,100.00
2024-02-12T01:34:59.721Z,100.00
2024-02-12T01:37:29.466Z,100.00
2024-02-12T01:39:58.737Z,100.00
2024-02-12T01:42:28.447Z,100.00
2024-02-12T01:45:13.371Z,100.00
2024-02-12T01:47:45.716Z,100.00
2024-02-12T01:50:16.825Z,100.00
2024-02-12T01:52:50.843Z,100.00
2024-02-12T01:55:21.574Z,100.00
2024-02-12T01:57:52.418Z,100.00
2024-02-12T02:00:26.934Z,100.00
2024-02-12T02:03:06.826Z,100.00
2024-02-12T02:05:37.035Z,100.00
2024-02-12T02:08:06.934Z,100.00
2024-02-12T02:10:36.243Z,100.00
2024-02-12T02:13:07.737Z,100.00
2024-02-12T02:15:58.652Z,100.00
2024-02-12T02:18:28.026Z,100.00
2024-02-12T02:21:14.520Z,100.00
2024-02-12T02:23:44.069Z,100.00
2024-02-12T02:26:14.711Z,100.00
2024-02-12T02:28:44.175Z,100.00
2024-02-12T02:31:13.358Z,100.00
2024-02-12T02:33:42.917Z,100.00
2024-02-12T02:36:12.281Z,100.00
2024-02-12T02:38:41.801Z,100.00
2024-02-12T02:41:11.545Z,100.00
2024-02-12T02:43:42.352Z,100.00
2024-02-12T02:46:11.722Z,100.00
2024-02-12T02:48:41.070Z,100.00
2024-02-12T02:51:10.843Z,100.00
2024-02-12T02:53:40.772Z,100.00
2024-02-12T02:56:11.195Z,100.00
2024-02-12T02:58:41.888Z,100.00
2024-02-12T03:01:13.693Z,100.00
2024-02-12T03:03:42.995Z,100.00
2024-02-12T03:06:14.880Z,100.00
2024-02-12T03:08:44.418Z,100.00
2024-02-12T03:11:20.212Z,100.00
2024-02-12T03:13:51.922Z,100.00
2024-02-12T03:16:22.650Z,100.00
2024-02-12T03:18:53.281Z,100.00
2024-02-12T03:21:24.177Z,100.00
2024-02-12T03:23:54.773Z,100.00
2024-02-12T03:26:24.054Z,100.00
2024-02-12T03:28:54.739Z,100.00
2024-02-12T03:31:24.074Z,100.00
2024-02-12T03:33:54.370Z,100.00
2024-02-12T03:36:23.948Z,100.00
2024-02-12T03:38:53.295Z,100.00
2024-02-12T03:41:25.693Z,100.00
2024-02-12T03:43:58.746Z,100.00
2024-02-12T03:46:32.752Z,100.00
2024-02-12T03:49:19.459Z,100.00
2024-02-12T03:52:08.109Z,100.00
2024-02-12T03:54:56.991Z,100.00
2024-02-12T03:57:44.970Z,100.00
2024-02-12T04:00:19.117Z,100.00
2024-02-12T04:02:48.949Z,100.00
2024-02-12T04:05:19.266Z,100.00
2024-02-12T04:07:49.887Z,100.00
2024-02-12T04:10:20.156Z,100.00
2024-02-12T04:12:49.880Z,100.00
2024-02-12T04:15:21.751Z,100.00
2024-02-12T04:17:51.805Z,100.00
2024-02-12T04:20:23.094Z,100.00
2024-02-12T04:22:54.108Z,100.00
2024-02-12T04:25:25.143Z,100.00
2024-02-12T04:27:55.909Z,100.00
2024-02-12T04:30:27.045Z,100.00
2024-02-12T04:32:59.762Z,100.00
2024-02-12T04:35:29.148Z,100.00
2024-02-12T04:37:58.924Z,100.00
2024-02-12T04:40:28.215Z,100.00
2024-02-12T04:42:59.083Z,100.00
2024-02-12T04:45:31.943Z,100.00
2024-02-12T04:48:01.276Z,100.00
2024-02-12T04:50:30.759Z,100.00
2024-02-12T04:53:00.022Z,100.00
2024-02-12T04:55:29.256Z,100.00
2024-02-12T04:57:58.674Z,100.00
2024-02-12T05:00:31.186Z,100.00
2024-02-12T05:03:00.544Z,100.00
2024-02-12T05:05:30.970Z,100.00
2024-02-12T05:08:05.176Z,100.00
2024-02-12T05:10:34.542Z,100.00
2024-02-12T05:13:09.931Z,100.00
2024-02-12T05:15:40.827Z,100.00
2024-02-12T05:18:30.140Z,100.00
2024-02-12T05:21:16.855Z,100.00
2024-02-12T05:23:46.051Z,100.00
2024-02-12T05:26:16.010Z,100.00
2024-02-12T05:28:45.449Z,100.00
2024-02-12T05:31:16.107Z,100.00
2024-02-12T05:33:45.690Z,100.00
2024-02-12T05:36:18.456Z,100.00
2024-02-12T05:38:47.834Z,100.00
2024-02-12T05:41:17.421Z,100.00
2024-02-12T05:43:47.281Z,100.00
2024-02-12T05:46:18.048Z,100.00
2024-02-12T05:48:48.285Z,100.00
2024-02-12T05:51:17.809Z,100.00
2024-02-12T05:53:48.422Z,100.00
2024-02-12T05:56:17.801Z,100.00
2024-02-12T05:58:47.335Z,100.00
2024-02-12T06:01:17.940Z,100.00
2024-02-12T06:03:48.134Z,100.00
2024-02-12T06:06:19.650Z,100.00
2024-02-12T06:08:49.185Z,100.00
2024-02-12T06:11:18.477Z,100.00
2024-02-12T06:13:47.919Z,100.00
2024-02-12T06:16:18.538Z,100.00
2024-02-12T06:18:48.281Z,100.00
2024-02-12T06:21:17.534Z,100.00
2024-02-12T06:23:46.869Z,100.00
2024-02-12T06:26:22.054Z,100.00
2024-02-12T06:28:52.080Z,100.00
2024-02-12T06:31:22.680Z,100.00
2024-02-12T06:33:52.227Z,100.00
2024-02-12T06:36:21.544Z,100.00
2024-02-12T06:38:50.843Z,100.00
2024-02-12T06:41:21.745Z,100.00
2024-02-12T06:43:51.001Z,100.00
2024-02-12T06:46:20.455Z,100.00
2024-02-12T06:48:51.112Z,100.00
2024-02-12T06:51:20.697Z,100.00
2024-02-12T06:53:57.769Z,100.00
2024-02-12T06:56:27.112Z,100.00
2024-02-12T06:58:56.483Z,100.00
2024-02-12T07:01:27.711Z,100.00
2024-02-12T07:03:58.839Z,100.00
2024-02-12T07:06:28.277Z,100.00
2024-02-12T07:08:57.994Z,100.00
2024-02-12T07:11:28.242Z,100.00
2024-02-12T07:13:57.561Z,100.00
2024-02-12T07:16:31.450Z,100.00
2024-02-12T07:19:02.766Z,100.00
2024-02-12T07:21:32.047Z,100.00
2024-02-12T07:24:01.857Z,100.00
2024-02-12T07:26:31.310Z,100.00
2024-02-12T07:29:00.806Z,100.00
2024-02-12T07:31:30.179Z,100.00
2024-02-12T07:34:01.426Z,100.00
2024-02-12T07:36:32.741Z,100.00
2024-02-12T07:39:02.279Z,100.00
2024-02-12T07:41:32.041Z,100.00
2024-02-12T07:44:01.486Z,100.00
2024-02-12T07:46:33.075Z,100.00
2024-02-12T07:49:02.386Z,100.00
2024-02-12T07:51:33.062Z,100.00
2024-02-12T07:54:02.385Z,100.00
2024-02-12T07:56:31.695Z,100.00
2024-02-12T07:59:00.943Z,100.00
2024-02-12T08:01:30.878Z,100.00
2024-02-12T08:04:00.154Z,100.00
2024-02-12T08:06:29.612Z,100.00
2024-02-12T08:09:00.238Z,100.00
2024-02-12T08:11:29.499Z,100.00
2024-02-12T08:13:58.801Z,100.00
2024-02-12T08:16:28.118Z,100.00
2024-02-12T08:18:57.513Z,100.00
2024-02-12T08:21:26.813Z,100.00
2024-02-12T08:23:56.109Z,100.00
2024-02-12T08:26:26.789Z,100.00
2024-02-12T08:28:56.075Z,100.00
2024-02-12T08:31:25.279Z,100.00
2024-02-12T08:33:55.584Z,100.00
2024-02-12T08:36:25.326Z,100.00
2024-02-12T08:38:54.679Z,100.00
2024-02-12T08:41:26.167Z,100.00
2024-02-12T08:43:56.987Z,100.00
2024-02-12T08:46:26.300Z,100.00
2024-02-12T08:48:56.049Z,100.00
2024-02-12T08:51:25.350Z,100.00
2024-02-12T08:53:57.747Z,100.00
2024-02-12T08:56:32.349Z,100.00
2024-02-12T08:59:02.811Z,100.00
2024-02-12T09:01:32.029Z,100.00
2024-02-12T09:04:17.036Z,100.00
2024-02-12T09:06:46.411Z,100.00
2024-02-12T09:09:15.736Z,100.00
2024-02-12T09:11:46.691Z,100.00
2024-02-12T09:14:18.229Z,100.00
2024-02-12T09:16:49.353Z,100.00
2024-02-12T09:19:19.008Z,100.00
2024-02-12T09:21:48.431Z,100.00
2024-02-12T09:24:19.376Z,100.00
2024-02-12T09:26:50.011Z,100.00
2024-02-12T09:29:20.178Z,100.00
2024-02-12T09:31:49.445Z,100.00
2024-02-12T09:34:18.775Z,100.00
2024-02-12T09:36:47.972Z,100.00
2024-02-12T09:39:17.593Z,100.00
2024-02-12T09:41:48.522Z,100.00
2024-02-12T09:44:27.078Z,100.00
2024-02-12T09:47:02.427Z,100.00
2024-02-12T09:49:32.857Z,100.00
2024-02-12T09:52:02.888Z,100.00
2024-02-12T09:54:32.774Z,100.00
2024-02-12T09:57:03.007Z,100.00
2024-02-12T09:59:33.836Z,100.00
2024-02-12T10:02:04.669Z,100.00
2024-02-12T10:04:55.906Z,100.00
2024-02-12T10:07:45.187Z,100.00
2024-02-12T10:10:36.118Z,100.00
2024-02-12T10:13:25.939Z,100.00
2024-02-12T10:16:16.445Z,100.00
2024-02-12T10:19:05.648Z,100.00
2024-02-12T10:21:55.482Z,100.00
2024-02-12T10:24:48.821Z,100.00
2024-02-12T10:27:39.331Z,100.00
2024-02-12T10:30:28.483Z,100.00
2024-02-12T10:33:19.376Z,100.00
2024-02-12T10:36:10.837Z,100.00
2024-02-12T10:39:02.091Z,100.00
2024-02-12T10:41:51.855Z,100.00
2024-02-12T10:44:41.128Z,100.00
2024-02-12T10:47:30.466Z,100.00
2024-02-12T10:50:21.548Z,100.00
2024-02-12T10:53:10.945Z,100.00
2024-02-12T10:56:01.123Z,100.00
2024-02-12T10:58:30.529Z,100.00
2024-02-12T11:01:04.794Z,100.00
2024-02-12T11:03:37.625Z,100.00
2024-02-12T11:06:12.689Z,100.00
2024-02-12T11:08:43.999Z,100.00
2024-02-12T11:11:17.001Z,100.00
2024-02-12T11:13:47.653Z,100.00
2024-02-12T11:16:18.593Z,100.00
2024-02-12T11:18:55.742Z,100.00
2024-02-12T11:21:30.340Z,100.00
2024-02-12T11:24:09.798Z,100.00
2024-02-12T11:26:40.820Z,100.00
2024-02-12T11:29:12.163Z,100.00
2024-02-12T11:31:42.605Z,100.00
2024-02-12T11:34:15.799Z,100.00
2024-02-12T11:36:47.238Z,100.00
2024-02-12T11:39:19.064Z,100.00
2024-02-12T11:41:48.549Z,100.00
2024-02-12T11:44:18.173Z,100.00
2024-02-12T11:46:56.540Z,100.00
2024-02-12T11:49:26.878Z,100.00
2024-02-12T11:52:07.684Z,100.00
2024-02-12T11:54:37.098Z,100.00
2024-02-12T11:57:08.044Z,100.00
2024-02-12T11:59:38.103Z,100.00
2024-02-12T12:02:07.601Z,100.00
2024-02-12T12:04:37.065Z,100.00
2024-02-12T12:07:16.768Z,100.00
2024-02-12T12:09:46.461Z,100.00
2024-02-12T12:12:17.250Z,100.00
2024-02-12T12:14:46.496Z,100.00
2024-02-12T12:17:30.104Z,100.00
2024-02-12T12:20:05.814Z,100.00
2024-02-12T12:22:38.367Z,100.00
2024-02-12T12:25:09.129Z,100.00
2024-02-12T12:27:38.690Z,100.00
2024-02-12T12:30:16.126Z,100.00
2024-02-12T12:32:48.529Z,100.00
2024-02-12T12:35:18.787Z,100.00
2024-02-12T12:37:50.916Z,100.00
2024-02-12T12:40:21.263Z,100.00
2024-02-12T12:42:52.105Z,100.00
2024-02-12T12:45:22.607Z,100.00
2024-02-12T12:48:00.497Z,100.00
2024-02-12T12:50:29.828Z,100.00
2024-02-12T12:53:00.612Z,100.00
2024-02-12T12:55:30.434Z,100.00
2024-02-12T12:58:00.603Z,100.00
2024-02-12T13:00:32.620Z,100.00
2024-02-12T13:03:07.886Z,100.00
2024-02-12T13:05:37.112Z,100.00
2024-02-12T13:08:18.812Z,100.00
2024-02-12T13:10:51.622Z,100.00
2024-02-12T13:13:22.285Z,100.00
2024-02-12T13:15:52.211Z,100.00
2024-02-12T13:18:27.690Z,100.00
2024-02-12T13:20:58.141Z,100.00
2024-02-12T13:23:28.797Z,100.00
2024-02-12T13:25:58.054Z,100.00
2024-02-12T13:28:29.456Z,99.91
2024-02-12T13:30:58.713Z,99.61
2024-02-12T13:33:28.068Z,96.61
2024-02-12T13:35:57.533Z,96.99
2024-02-12T13:38:28.808Z,97.70
2024-02-12T13:40:58.195Z,99.27
2024-02-12T13:43:27.424Z,96.29
2024-02-12T13:45:56.605Z,98.12
2024-02-12T13:48:26.783Z,98.53
2024-02-12T13:50:56.702Z,98.84
2024-02-12T13:53:26.079Z,100.00
2024-02-12T13:55:56.785Z,98.88
2024-02-12T13:58:26.044Z,100.00
2024-02-12T14:01:10.002Z,100.00
2024-02-12T14:03:45.995Z,100.00
2024-02-12T14:06:17.413Z,100.00
2024-02-12T14:08:48.142Z,100.00
2024-02-12T14:11:19.020Z,100.00
2024-02-12T14:13:48.290Z,100.00
2024-02-12T14:16:17.569Z,100.00
2024-02-12T14:18:48.241Z,100.00
2024-02-12T14:21:19.775Z,100.00
2024-02-12T14:23:49.194Z,100.00
2024-02-12T14:26:22.806Z,100.00
2024-02-12T14:28:52.155Z,100.00
2024-02-12T14:31:22.962Z,100.00
2024-02-12T14:33:52.448Z,100.00
2024-02-12T14:36:22.896Z,100.00
2024-02-12T14:38:52.585Z,100.00
2024-02-12T14:41:24.899Z,100.00
2024-02-12T14:43:55.824Z,100.00
2024-02-12T14:46:26.808Z,100.00
2024-02-12T14:49:04.877Z,100.00
2024-02-12T14:51:34.394Z,100.00
2024-02-12T14:54:03.630Z,100.00
2024-02-12T14:56:34.973Z,100.00
2024-02-12T14:59:05.088Z,100.00
2024-02-12T15:01:34.390Z,100.00
2024-02-12T15:04:05.713Z,100.00
2024-02-12T15:06:34.999Z,100.00
2024-02-12T15:09:07.499Z,100.00
2024-02-12T15:11:38.155Z,100.00
2024-02-12T15:14:07.523Z,100.00
2024-02-12T15:16:37.733Z,100.00
2024-02-12T15:19:06.992Z,100.00
2024-02-12T15:21:36.527Z,100.00
2024-02-12T15:24:06.849Z,100.00
2024-02-12T15:26:37.428Z,100.00
2024-02-12T15:29:06.794Z,100.00
2024-02-12T15:31:36.729Z,100.00
2024-02-12T15:34:21.797Z,100.00
2024-02-12T15:36:52.656Z,100.00
2024-02-12T15:39:21.927Z,100.00
2024-02-12T15:41:52.570Z,100.00
2024-02-12T15:44:21.841Z,100.00
2024-02-12T15:46:51.175Z,100.00
2024-02-12T15:49:20.956Z,100.00
2024-02-12T15:51:52.214Z,100.00
2024-02-12T15:54:23.682Z,100.00
2024-02-12T15:56:56.937Z,100.00
2024-02-12T15:59:26.813Z,100.00
2024-02-12T16:01:56.566Z,100.00
2024-02-12T16:04:25.963Z,100.00
2024-02-12T16:06:55.479Z,100.00
2024-02-12T16:09:24.654Z,100.00
2024-02-12T16:11:55.539Z,100.00
2024-02-12T16:14:26.561Z,100.00
2024-02-12T16:16:58.408Z,100.00
2024-02-12T16:19:28.200Z,100.00
2024-02-12T16:21:57.830Z,100.00
2024-02-12T16:24:28.130Z,100.00
2024-02-12T16:27:01.983Z,100.00
2024-02-12T16:29:31.817Z,100.00
2024-02-12T16:32:01.311Z,100.00
2024-02-12T16:34:31.777Z,100.00
2024-02-12T16:37:01.170Z,100.00
2024-02-12T16:39:30.938Z,100.00
2024-02-12T16:42:01.582Z,100.00
2024-02-12T16:44:31.026Z,100.00
2024-02-12T16:47:00.325Z,100.00
2024-02-12T16:49:29.736Z,100.00
2024-02-12T16:51:59.251Z,100.00
2024-02-12T16:54:28.608Z,100.00
2024-02-12T16:56:57.890Z,100.00
2024-02-12T16:59:29.072Z,100.00
2024-02-12T17:01:58.721Z,100.00
2024-02-12T17:04:29.744Z,100.00
2024-02-12T17:07:00.385Z,100.00
2024-02-12T17:09:29.705Z,100.00
2024-02-12T17:11:58.946Z,100.00
2024-02-12T17:14:30.531Z,100.00
2024-02-12T17:16:59.906Z,100.00
2024-02-12T17:19:30.221Z,100.00
2024-02-12T17:21:59.493Z,100.00
2024-02-12T17:24:30.050Z,100.00
2024-02-12T17:26:59.297Z,100.00
2024-02-12T17:29:29.976Z,100.00
2024-02-12T17:31:59.219Z,100.00
2024-02-12T17:34:28.627Z,100.00
2024-02-12T17:36:57.908Z,100.00
2024-02-12T17:39:27.199Z,100.00
2024-02-12T17:41:59.208Z,100.00
2024-02-12T17:44:29.861Z,100.00
2024-02-12T17:46:59.945Z,100.00
2024-02-12T17:49:29.189Z,100.00
2024-02-12T17:51:59.859Z,100.00
2024-02-12T17:54:29.159Z,100.00
2024-02-12T17:56:58.451Z,100.00
2024-02-12T17:59:29.130Z,100.00
2024-02-12T18:01:58.358Z,100.00
2024-02-12T18:04:27.861Z,100.00
2024-02-12T18:06:57.150Z,100.00
2024-02-12T18:09:27.111Z,100.00
2024-02-12T18:11:56.476Z,100.00
2024-02-12T18:14:25.722Z,100.00
2024-02-12T18:16:57.117Z,100.00
2024-02-12T18:19:26.362Z,100.00
2024-02-12T18:21:55.572Z,100.00
2024-02-12T18:24:25.346Z,100.00
2024-02-12T18:26:54.533Z,100.00
2024-02-12T18:29:25.873Z,100.00
2024-02-12T18:31:57.482Z,100.00
2024-02-12T18:34:26.762Z,100.00
2024-02-12T18:36:56.702Z,100.00
2024-02-12T18:39:26.280Z,100.00
2024-02-12T18:41:55.685Z,100.00
2024-02-12T18:44:26.146Z,100.00
2024-02-12T18:46:58.439Z,100.00
2024-02-12T18:49:28.115Z,100.00
2024-02-12T18:51:57.433Z,100.00
2024-02-12T18:54:27.747Z,100.00
2024-02-12T18:56:57.183Z,100.00
2024-02-12T18:59:26.387Z,100.00
2024-02-12T19:01:57.060Z,100.00
2024-02-12T19:04:26.756Z,100.00
2024-02-12T19:06:56.065Z,100.00
2024-02-12T19:09:25.389Z,100.00
2024-02-12T19:11:55.174Z,100.00
2024-02-12T19:14:24.563Z,100.00
2024-02-12T19:16:53.933Z,100.00
2024-02-12T19:19:24.812Z,100.00
2024-02-12T19:21:54.158Z,100.00
2024-02-12T19:24:23.372Z,100.00
2024-02-12T19:26:53.092Z,100.00
2024-02-12T19:29:22.946Z,100.00
2024-02-12T19:31:52.564Z,100.00
2024-02-12T19:34:22.087Z,100.00
2024-02-12T19:36:55.968Z,100.00
2024-02-12T19:39:25.347Z,100.00
2024-02-12T19:41:54.558Z,100.00
2024-02-12T19:44:23.814Z,100.00
2024-02-12T19:46:53.415Z,100.00
2024-02-12T19:49:23.540Z,100.00
2024-02-12T19:51:54.277Z,100.00
2024-02-12T19:54:23.560Z,100.00
2024-02-12T19:56:52.818Z,100.00
2024-02-12T19:59:22.037Z,100.00
2024-02-12T20:01:51.876Z,100.00
2024-02-12T20:04:21.078Z,100.00
2024-02-12T20:06:50.438Z,100.00
2024-02-12T20:09:21.107Z,100.00
2024-02-12T20:11:52.589Z,100.00
2024-02-12T20:14:21.923Z,100.00
2024-02-12T20:16:53.900Z,100.00
2024-02-12T20:19:25.535Z,100.00
2024-02-12T20:21:55.398Z,100.00
2024-02-12T20:24:26.417Z,100.00
2024-02-12T20:26:55.785Z,100.00
2024-02-12T20:29:29.363Z,100.00
2024-02-12T20:31:58.796Z,100.00
2024-02-12T20:34:31.504Z,100.00
2024-02-12T20:37:02.539Z,100.00
2024-02-12T20:39:35.173Z,100.00
2024-02-12T20:42:04.649Z,100.00
2024-02-12T20:44:33.972Z,100.00
2024-02-12T20:47:04.354Z,100.00
2024-02-12T20:49:36.966Z,100.00
2024-02-12T20:52:08.420Z,100.00
2024-02-12T20:54:39.077Z,100.00
2024-02-12T20:57:09.057Z,100.00
2024-02-12T20:59:39.246Z,100.00
2024-02-12T21:02:07.823Z,100.00
2024-02-12T21:04:37.210Z,100.00
2024-02-12T21:07:06.949Z,100.00
2024-02-12T21:09:36.258Z,100.00
2024-02-12T21:12:09.334Z,100.00
2024-02-12T21:14:38.961Z,100.00
2024-02-12T21:17:08.762Z,100.00
2024-02-12T21:19:38.139Z,100.00
2024-02-12T21:22:09.753Z,100.00
2024-02-12T21:24:40.712Z,100.00
2024-02-12T21:27:14.270Z,100.00
2024-02-12T21:29:44.098Z,100.00
2024-02-12T21:32:14.070Z,100.00
2024-02-12T21:34:43.488Z,100.00
2024-02-12T21:37:18.400Z,100.00
2024-02-12T21:39:49.238Z,100.00
2024-02-12T21:42:27.548Z,100.00
2024-02-12T21:44:58.681Z,100.00
2024-02-12T21:47:29.291Z,100.00
2024-02-12T21:49:58.976Z,100.00
2024-02-12T21:52:28.324Z,100.00
2024-02-12T21:54:57.633Z,100.00
2024-02-12T21:57:28.249Z,100.00
2024-02-12T21:59:57.531Z,100.00
2024-02-12T22:02:28.595Z,100.00
2024-02-12T22:04:57.842Z,100.00
2024-02-12T22:07:28.679Z,100.00
2024-02-12T22:09:57.880Z,100.00
2024-02-12T22:12:28.556Z,100.00
2024-02-12T22:14:58.720Z,100.00
2024-02-12T22:17:28.291Z,100.00
2024-02-12T22:19:57.696Z,100.00
2024-02-12T22:22:26.988Z,100.00
2024-02-12T22:24:57.219Z,100.00
2024-02-12T22:27:27.872Z,100.00
2024-02-12T22:29:58.980Z,100.00
2024-02-12T22:32:28.432Z,100.00
2024-02-12T22:34:57.701Z,100.00
2024-02-12T22:37:26.983Z,100.00
2024-02-12T22:39:56.222Z,100.00
2024-02-12T22:42:25.513Z,100.00
2024-02-12T22:44:56.736Z,100.00
2024-02-12T22:47:26.184Z,100.00
2024-02-12T22:49:55.515Z,100.00
2024-02-12T22:52:25.967Z,100.00
2024-02-12T22:54:55.482Z,100.00
2024-02-12T22:57:24.744Z,100.00
2024-02-12T22:59:55.346Z,100.00
2024-02-12T23:02:24.765Z,100.00
2024-02-12T23:04:54.451Z,100.00
2024-02-12T23:07:26.074Z,100.00
2024-02-12T23:09:55.470Z,100.00
2024-02-12T23:12:26.335Z,100.00
2024-02-12T23:14:57.149Z,100.00
2024-02-12T23:17:26.536Z,100.00
2024-02-12T23:19:58.172Z,100.00
2024-02-12T23:22:27.681Z,100.00
2024-02-12T23:24:57.328Z,100.00
2024-02-12T23:27:27.789Z,100.00
2024-02-12T23:29:58.582Z,100.00
2024-02-12T23:32:28.631Z,100.00
2024-02-12T23:34:58.057Z,100.00
2024-02-12T23:37:27.413Z,100.00
2024-02-12T23:39:55.693Z,100.00
2024-02-12T23:42:25.206Z,100.00
2024-02-12T23:44:55.052Z,100.00
2024-02-12T23:47:27.588Z,100.00
2024-02-12T23:49:57.754Z,100.00
2024-02-12T23:52:27.075Z,100.00
2024-02-12T23:54:56.409Z,100.00
2024-02-12T23:57:27.342Z,100.00
2024-02-12T23:59:56.694Z,100.00
